Time;durP1;ratioP1;P1;durP2;ratioP2;P2;SDS_P1;SDS_P2;PMS_P1;PMS_P2;Temp;Humidity;BMP_temperature;BMP_pressure;BME280_temperature;BME280_humidity;BME280_pressure;Samples;Min_cycle;Max_cycle;Signal;HPM_P1;HPM_P2
2024/01/01 00:00:06;;;;;;;65.05;45.42;;;;;;;6.55;100.00;99489.31;10400630;28;20044;-76
2024/01/01 00:05:07;;;;;;;4.85;4.47;;;;;;;6.57;100.00;99500.69;10418019;28;20371;-77
2024/01/01 00:10:08;;;;;;;4.10;3.95;;;;;;;6.56;100.00;99497.19;10417355;28;20415;-76
2024/01/01 00:15:09;;;;;;;3.92;3.72;;;;;;;6.45;100.00;99487.88;10417537;28;20037;-77
2024/01/01 00:20:10;;;;;;;45.08;28.00;;;;;;;6.47;100.00;99482.28;10417454;28;20029;-77
2024/01/01 00:25:10;;;;;;;52.70;31.45;;;;;;;6.49;100.00;99488.28;10418062;28;20057;-77
2024/01/01 00:30:11;;;;;;;25.83;18.10;;;;;;;6.46;100.00;99486.81;10416560;28;20080;-77
2024/01/01 00:35:12;;;;;;;54.28;41.28;;;;;;;6.42;100.00;99466.75;10416516;28;20116;-77
2024/01/01 00:40:13;;;;;;;58.67;36.78;;;;;;;6.45;100.00;99500.50;10416757;28;20083;-77
2024/01/01 00:45:13;;;;;;;26.58;19.92;;;;;;;6.42;100.00;99480.22;10416441;28;20112;-76
2024/01/01 00:50:14;;;;;;;24.50;11.77;;;;;;;6.44;100.00;99474.59;10416073;28;20087;-77
2024/01/01 00:55:14;;;;;;;25.17;15.15;;;;;;;6.49;100.00;99489.09;10415136;28;20115;-77
2024/01/01 01:00:15;;;;;;;26.23;17.00;;;;;;;6.56;100.00;99478.34;10414668;28;20043;-76
2024/01/01 01:05:15;;;;;;;32.22;26.00;;;;;;;6.60;100.00;99490.34;10414145;28;20159;-77
2024/01/01 01:10:16;;;;;;;20.98;13.38;;;;;;;6.70;100.00;99477.34;10430653;28;20029;-77
2024/01/01 01:15:17;;;;;;;26.15;13.55;;;;;;;6.72;100.00;99496.75;10414741;28;20506;-77
2024/01/01 01:20:18;;;;;;;1.05;1.05;;;;;;;6.67;100.00;99503.81;10414524;28;20122;-78
2024/01/01 01:25:18;;;;;;;1.30;1.30;;;;;;;6.65;100.00;99511.25;10414509;28;20053;-76
2024/01/01 01:30:19;;;;;;;17.55;8.15;;;;;;;6.74;100.00;99540.44;10414840;28;20448;-76
2024/01/01 01:35:19;;;;;;;16.35;8.20;;;;;;;6.83;100.00;99540.22;10414212;28;20034;-77
2024/01/01 01:40:20;;;;;;;25.67;8.82;;;;;;;6.80;100.00;99571.09;10396534;28;20099;-76
2024/01/01 01:45:20;;;;;;;15.40;9.93;;;;;;;6.81;100.00;99561.16;10429336;28;20033;-77
2024/01/01 01:50:21;;;;;;;22.85;9.30;;;;;;;6.85;100.00;99538.16;10413369;28;20488;-77
2024/01/01 01:55:23;;;;;;;19.08;7.90;;;;;;;6.78;100.00;99551.63;10412869;28;20108;-76
2024/01/01 02:00:23;;;;;;;6.20;3.83;;;;;;;6.75;100.00;99550.16;10413116;28;20141;-77
2024/01/01 02:05:23;;;;;;;15.60;6.35;;;;;;;6.68;100.00;99549.34;10433886;28;20128;-75
2024/01/01 02:10:24;;;;;;;13.38;6.95;;;;;;;6.57;100.00;99558.00;10418523;28;20061;-75
2024/01/01 02:15:24;;;;;;;22.17;8.38;;;;;;;6.65;100.00;99554.28;10417003;28;20082;-76
2024/01/01 02:20:25;;;;;;;13.90;7.82;;;;;;;6.71;100.00;99559.69;10413539;28;20026;-77
2024/01/01 02:25:26;;;;;;;20.15;5.82;;;;;;;6.77;100.00;99549.16;10428403;28;20075;-76
2024/01/01 02:30:26;;;;;;;14.30;7.03;;;;;;;6.78;100.00;99548.94;10417475;28;20044;-76
2024/01/01 02:35:26;;;;;;;16.35;5.28;;;;;;;6.82;100.00;99554.72;10421219;28;20026;-76
2024/01/01 02:40:27;;;;;;;27.40;7.03;;;;;;;6.93;100.00;99554.13;10436939;28;20033;-76
2024/01/01 02:45:31;;;;;;;28.88;9.43;;;;;;;7.05;100.00;99560.53;10419910;28;20032;-76
2024/01/01 02:50:33;;;;;;;23.27;7.18;;;;;;;7.07;100.00;99565.69;10420170;28;20118;-77
2024/01/01 02:55:33;;;;;;;14.40;6.30;;;;;;;7.13;100.00;99532.56;10419076;28;20065;-76
2024/01/01 03:00:34;;;;;;;19.58;8.65;;;;;;;7.15;100.00;99562.81;10418945;28;20033;-76
2024/01/01 03:05:34;;;;;;;18.77;6.60;;;;;;;7.13;100.00;99557.63;10419982;28;20112;-75
2024/01/01 03:10:35;;;;;;;29.27;7.72;;;;;;;7.13;100.00;99568.38;10419978;28;20418;-76
2024/01/01 03:15:35;;;;;;;17.55;7.78;;;;;;;7.23;100.00;99586.81;10417934;28;20037;-76
2024/01/01 03:20:35;;;;;;;20.23;7.07;;;;;;;7.19;100.00;99581.03;10418151;28;20038;-75
2024/01/01 03:25:36;;;;;;;25.00;9.02;;;;;;;7.19;100.00;99577.50;10419436;28;20146;-76
2024/01/01 03:30:36;;;;;;;23.92;9.68;;;;;;;7.25;100.00;99592.84;10401978;28;20029;-76
2024/01/01 03:35:37;;;;;;;18.23;6.03;;;;;;;7.16;100.00;99592.19;10419132;28;20478;-74
2024/01/01 03:40:37;;;;;;;20.67;6.20;;;;;;;7.21;100.00;99603.19;10416204;28;20041;-75
2024/01/01 03:45:37;;;;;;;17.58;6.47;;;;;;;7.27;100.00;99606.91;10418074;28;20032;-75
2024/01/01 03:50:38;;;;;;;12.18;6.03;;;;;;;7.30;100.00;99617.25;10418196;28;20082;-76
2024/01/01 03:55:39;;;;;;;16.70;6.93;;;;;;;7.39;100.00;99626.78;10416767;28;20035;-76
2024/01/01 04:00:39;;;;;;;26.70;6.97;;;;;;;7.44;100.00;99618.91;10418887;28;20061;-76
2024/01/01 04:05:39;;;;;;;22.60;6.90;;;;;;;7.46;100.00;99630.28;10418303;28;20028;-75
2024/01/01 04:10:40;;;;;;;20.95;7.32;;;;;;;7.48;100.00;99629.28;10417363;28;20057;-77
2024/01/01 04:15:40;;;;;;;18.85;5.90;;;;;;;7.55;100.00;99628.22;10399911;28;20042;-77
2024/01/01 04:20:40;;;;;;;27.25;6.07;;;;;;;7.64;100.00;99637.75;10400640;28;20103;-76
2024/01/01 04:25:41;;;;;;;10.02;5.20;;;;;;;7.70;100.00;99644.16;10418293;28;20084;-77
2024/01/01 04:30:41;;;;;;;15.13;6.30;;;;;;;7.77;100.00;99644.97;10417157;28;20045;-75
2024/01/01 04:35:42;;;;;;;21.38;5.38;;;;;;;7.90;100.00;99649.50;10417232;28;20033;-76
2024/01/01 04:40:42;;;;;;;38.60;7.00;;;;;;;7.88;100.00;99659.66;10421175;28;20074;-76
2024/01/01 04:45:42;;;;;;;20.63;5.90;;;;;;;7.88;100.00;99659.66;10420762;28;20052;-76
2024/01/01 04:50:43;;;;;;;10.68;4.97;;;;;;;7.86;100.00;99672.53;10419072;28;20042;-76
2024/01/01 04:55:43;;;;;;;20.63;4.90;;;;;;;7.89;100.00;99680.22;10416701;28;20083;-75
2024/01/01 05:00:44;;;;;;;10.38;5.22;;;;;;;7.86;100.00;99681.44;10414439;28;20129;-75
2024/01/01 05:05:44;;;;;;;17.67;5.90;;;;;;;7.83;100.00;99691.84;10415905;28;20043;-76
2024/01/01 05:10:44;;;;;;;27.27;6.00;;;;;;;7.91;100.00;99688.91;10415449;28;20033;-77
2024/01/01 05:15:45;;;;;;;17.05;4.88;;;;;;;7.88;100.00;99687.47;10416116;28;20375;-75
2024/01/01 05:20:45;;;;;;;16.02;4.63;;;;;;;7.89;100.00;99697.22;10413534;28;20026;-76
2024/01/01 05:25:46;;;;;;;11.43;6.45;;;;;;;7.96;100.00;99704.47;10412502;28;20135;-75
2024/01/01 05:30:46;;;;;;;11.27;5.57;;;;;;;7.90;100.00;99708.81;10413184;28;20037;-76
2024/01/01 05:35:46;;;;;;;23.25;4.90;;;;;;;7.84;100.00;99717.72;10414452;28;20480;-76
2024/01/01 05:40:47;;;;;;;12.50;4.43;;;;;;;7.69;100.00;99718.78;10414000;28;20063;-75
2024/01/01 05:45:47;;;;;;;10.15;3.97;;;;;;;7.72;100.00;99730.16;10413876;28;20113;-76
2024/01/01 05:50:48;;;;;;;35.17;6.82;;;;;;;7.76;100.00;99734.13;10413084;28;20086;-76
2024/01/01 05:55:48;;;;;;;24.75;6.22;;;;;;;7.78;100.00;99754.41;10412078;28;20041;-74
2024/01/01 06:00:49;;;;;;;17.58;4.15;;;;;;;7.69;100.00;99753.81;10413728;28;20068;-75
2024/01/01 06:05:49;;;;;;;20.80;5.32;;;;;;;7.59;100.00;99761.47;10411712;28;20039;-76
2024/01/01 06:10:49;;;;;;;23.83;6.00;;;;;;;7.53;100.00;99767.69;10413169;28;20369;-76
2024/01/01 06:15:51;;;;;;;7.88;3.15;;;;;;;7.61;100.00;99772.88;10395409;28;20041;-75
2024/01/01 06:20:51;;;;;;;18.20;3.80;;;;;;;7.64;100.00;99785.09;10413117;28;20136;-76
2024/01/01 06:25:52;;;;;;;11.85;3.85;;;;;;;7.71;100.00;99787.81;10413363;28;20060;-75
2024/01/01 06:30:52;;;;;;;21.80;7.32;;;;;;;7.76;100.00;99806.91;10413671;28;20441;-76
2024/01/01 06:35:53;;;;;;;24.83;4.43;;;;;;;7.72;100.00;99811.00;10412491;28;20048;-76
2024/01/01 06:40:53;;;;;;;6.00;2.85;;;;;;;7.69;100.00;99823.06;10428610;28;20061;-76
2024/01/01 06:45:53;;;;;;;10.70;3.20;;;;;;;7.69;100.00;99840.06;10427802;28;20017;-75
2024/01/01 06:50:54;;;;;;;6.15;2.67;;;;;;;7.70;100.00;99805.84;10410452;28;20112;-75
2024/01/01 06:55:54;;;;;;;8.05;2.83;;;;;;;7.69;100.00;99842.75;10427676;28;20029;-75
2024/01/01 07:00:55;;;;;;;7.75;3.08;;;;;;;7.64;100.00;99850.59;10410327;28;20057;-76
2024/01/01 07:05:55;;;;;;;10.75;3.67;;;;;;;7.71;100.00;99868.66;10427002;28;20105;-76
2024/01/01 07:10:57;;;;;;;6.10;3.33;;;;;;;7.45;100.00;99876.44;10410623;28;20068;-76
2024/01/01 07:15:58;;;;;;;9.65;5.13;;;;;;;7.41;100.00;99882.47;10415061;28;20167;-76
2024/01/01 07:21:00;;;;;;;16.95;4.57;;;;;;;7.32;100.00;99894.44;10421412;28;20076;-76
2024/01/01 07:26:00;;;;;;;10.05;4.03;;;;;;;7.21;100.00;99895.81;10423112;28;20496;-76
2024/01/01 07:31:01;;;;;;;15.15;5.28;;;;;;;7.29;100.00;99906.44;10418074;28;20068;-75
2024/01/01 07:36:01;;;;;;;7.15;3.78;;;;;;;7.46;100.00;99923.06;10418888;28;20424;-75
2024/01/01 07:41:02;;;;;;;23.30;3.92;;;;;;;7.57;100.00;99930.59;10420032;28;20048;-76
2024/01/01 07:46:03;;;;;;;6.50;2.53;;;;;;;7.68;100.00;99932.69;10433556;28;20440;-76
2024/01/01 07:51:03;;;;;;;29.70;3.92;;;;;;;7.73;100.00;99955.53;10417843;28;20033;-76
2024/01/01 07:56:07;;;;;;;5.93;2.78;;;;;;;7.78;100.00;99963.81;10401403;28;20429;-76
2024/01/01 08:01:07;;;;;;;7.88;3.35;;;;;;;7.96;100.00;99974.03;10417416;28;20099;-75
2024/01/01 08:06:08;;;;;;;5.32;3.13;;;;;;;8.00;100.00;99976.09;10416685;28;20468;-75
2024/01/01 08:11:08;;;;;;;6.28;3.08;;;;;;;7.79;100.00;99970.88;10416071;28;20064;-75
2024/01/01 08:16:08;;;;;;;4.75;2.35;;;;;;;7.77;100.00;99986.41;10417070;28;20041;-75
2024/01/01 08:21:09;;;;;;;11.77;3.22;;;;;;;7.84;100.00;100003.44;10417032;28;20037;-75
2024/01/01 08:26:09;;;;;;;4.43;1.95;;;;;;;7.90;100.00;100026.88;10398687;28;20481;-75
2024/01/01 08:31:10;;;;;;;4.57;2.00;;;;;;;7.39;100.00;100016.47;10432352;28;20373;-75
2024/01/01 08:36:10;;;;;;;2.22;2.05;;;;;;;7.15;100.00;100032.09;10399930;28;20072;-75
2024/01/01 08:41:10;;;;;;;2.72;2.33;;;;;;;7.26;100.00;100051.41;10416754;28;20048;-75
2024/01/01 08:46:11;;;;;;;5.30;1.80;;;;;;;7.16;100.00;100030.22;10416257;28;20410;-76
2024/01/01 08:51:11;;;;;;;10.43;2.80;;;;;;;7.21;100.00;100055.53;10431154;28;20033;-75
2024/01/01 08:56:11;;;;;;;8.07;3.03;;;;;;;7.35;100.00;100051.06;10416160;28;20465;-75
2024/01/01 09:01:12;;;;;;;11.13;2.65;;;;;;;7.35;100.00;100067.22;10415813;28;20040;-75
2024/01/01 09:06:12;;;;;;;11.38;3.25;;;;;;;7.48;100.00;100082.66;10416319;28;20506;-75
2024/01/01 09:11:13;;;;;;;10.77;3.03;;;;;;;7.62;100.00;100078.16;10416945;28;20029;-76
2024/01/01 09:16:13;;;;;;;11.90;3.00;;;;;;;7.59;100.00;100092.03;10343007;28;20144;-76
2024/01/01 09:21:15;;;;;;;10.23;3.22;;;;;;;7.68;100.00;100097.06;10430756;28;20128;-75
2024/01/01 09:26:15;;;;;;;17.45;4.78;;;;;;;7.63;100.00;100096.84;10413891;28;20045;-75
2024/01/01 09:31:17;;;;;;;14.10;3.53;;;;;;;7.58;100.00;100107.38;10414502;28;20046;-76
2024/01/01 09:36:18;;;;;;;7.32;1.63;;;;;;;7.72;100.00;100123.59;10412973;28;20041;-76
2024/01/01 09:41:18;;;;;;;12.23;4.25;;;;;;;7.92;100.00;100119.19;10413792;28;20071;-76
2024/01/01 09:46:20;;;;;;;7.38;2.38;;;;;;;8.00;100.00;100134.34;10414099;28;20087;-75
2024/01/01 09:51:20;;;;;;;6.28;2.47;;;;;;;7.96;100.00;100142.00;10430711;28;20034;-76
2024/01/01 09:56:21;;;;;;;5.72;1.92;;;;;;;8.05;100.00;100145.38;10433279;28;20120;-76
2024/01/01 10:01:21;;;;;;;10.23;3.05;;;;;;;7.99;100.00;100165.06;10434446;28;20132;-77
2024/01/01 10:06:22;;;;;;;9.55;2.55;;;;;;;7.77;100.00;100167.81;10414002;28;20069;-75
2024/01/01 10:11:22;;;;;;;25.05;3.08;;;;;;;8.02;100.00;100186.22;10413963;28;20111;-75
2024/01/01 10:16:26;;;;;;;12.60;3.88;;;;;;;8.23;100.00;100183.44;10411586;28;20105;-76
2024/01/01 10:21:31;;;;;;;19.23;4.15;;;;;;;8.54;100.00;100196.47;10412054;28;20122;-76
2024/01/01 10:26:32;;;;;;;21.33;5.55;;;;;;;9.43;100.00;100198.13;10412272;28;20080;-75
2024/01/01 10:31:33;;;;;;;21.77;4.18;;;;;;;10.03;100.00;100206.19;10411645;28;20080;-76
2024/01/01 10:36:34;;;;;;;19.88;4.97;;;;;;;9.51;100.00;100189.00;10413038;28;20100;-76
2024/01/01 10:41:35;;;;;;;3.63;3.13;;;;;;;9.40;100.00;100184.19;10412758;28;20049;-81
2024/01/01 10:46:39;;;;;;;13.52;4.82;;;;;;;9.62;100.00;100198.34;10395048;28;20025;-78
2024/01/01 10:52:18;;;;;;;15.02;4.75;;;;;;;9.41;100.00;100205.63;10400491;28;20128;-75
2024/01/01 10:57:39;;;;;;;8.30;3.88;;;;;;;9.75;100.00;100201.84;10409873;28;20117;-76
2024/01/01 11:02:41;;;;;;;19.98;5.65;;;;;;;9.35;100.00;100211.84;10418575;28;20024;-75
2024/01/01 11:08:02;;;;;;;14.07;4.75;;;;;;;9.46;100.00;100219.31;10418883;28;20055;-75
2024/01/01 11:13:09;;;;;;;14.70;9.75;;;;;;;9.31;100.00;100218.69;10417752;28;20041;-75
2024/01/01 11:18:19;;;;;;;;;;;;;;;9.19;100.00;100234.69;10402758;28;20117;-75
2024/01/01 11:23:42;;;;;;;4.65;2.60;;;;;;;8.90;100.00;100233.13;10419687;28;20271;-74
2024/01/01 11:28:43;;;;;;;8.48;2.95;;;;;;;8.75;100.00;100245.97;10418845;28;20069;-74
2024/01/01 11:33:43;;;;;;;15.07;4.35;;;;;;;8.60;100.00;100255.03;10419742;28;20460;-74
2024/01/01 11:38:48;;;;;;;15.45;4.25;;;;;;;8.38;100.00;100254.28;10419076;28;20058;-74
2024/01/01 11:43:48;;;;;;;6.78;3.33;;;;;;;8.25;100.00;100256.06;10418567;28;20022;-74
2024/01/01 11:49:01;;;;;;;5.50;3.25;;;;;;;8.59;100.00;100274.97;10402583;28;20029;-74
2024/01/01 11:54:09;;;;;;;11.88;4.05;;;;;;;8.89;100.00;100279.25;10434032;28;20038;-74
2024/01/01 11:59:10;;;;;;;23.70;5.45;;;;;;;8.85;100.00;100282.34;10433524;28;20034;-74
2024/01/01 12:04:10;;;;;;;12.50;3.75;;;;;;;8.83;100.00;100270.09;10417291;28;20029;-74
2024/01/01 12:09:12;;;;;;;11.23;2.97;;;;;;;8.84;100.00;100277.16;10416758;28;20033;-75
2024/01/01 12:14:12;;;;;;;6.03;3.80;;;;;;;8.60;100.00;100270.41;10416224;28;20369;-74
2024/01/01 12:19:12;;;;;;;11.50;4.75;;;;;;;9.36;100.00;100270.25;10432888;28;20026;-74
2024/01/01 12:24:14;;;;;;;16.85;4.88;;;;;;;8.69;100.00;100279.16;10432291;28;20123;-74
2024/01/01 12:29:21;;;;;;;14.73;4.78;;;;;;;8.71;100.00;100275.25;10432673;28;20029;-73
2024/01/01 12:34:22;;;;;;;11.35;4.05;;;;;;;8.68;100.00;100288.28;10418801;28;20043;-73
2024/01/01 12:39:22;;;;;;;15.23;4.50;;;;;;;8.91;100.00;100291.53;10419167;28;20376;-74
2024/01/01 12:44:23;;;;;;;7.20;2.78;;;;;;;8.69;100.00;100293.50;10416466;28;20126;-73
2024/01/01 12:49:24;;;;;;;17.63;4.00;;;;;;;8.98;100.00;100294.25;10417371;28;20037;-73
2024/01/01 12:54:24;;;;;;;22.30;4.30;;;;;;;9.18;100.00;100305.09;10415630;28;20036;-74
2024/01/01 12:59:24;;;;;;;17.30;5.60;;;;;;;9.15;100.00;100309.03;10414715;28;20043;-73
2024/01/01 13:04:26;;;;;;;23.50;5.93;;;;;;;8.88;100.00;100310.00;10413918;28;20056;-73
2024/01/01 13:09:26;;;;;;;14.23;3.70;;;;;;;8.67;100.00;100313.63;10413990;28;20045;-73
2024/01/01 13:14:27;;;;;;;6.20;3.67;;;;;;;8.44;100.00;100313.91;10414056;28;20034;-73
2024/01/01 13:19:27;;;;;;;15.77;3.65;;;;;;;8.35;100.00;100315.88;10430624;28;20034;-73
2024/01/01 13:24:28;;;;;;;17.27;5.70;;;;;;;8.30;100.00;100329.16;10414416;28;20045;-73
2024/01/01 13:29:28;;;;;;;6.07;2.67;;;;;;;8.19;100.00;100333.19;10413145;28;20117;-73
2024/01/01 13:34:28;;;;;;;10.52;4.85;;;;;;;8.06;100.00;100339.31;10414333;28;20048;-73
2024/01/01 13:39:29;;;;;;;6.72;4.25;;;;;;;8.12;100.00;100357.41;10429584;28;20025;-73
2024/01/01 13:44:29;;;;;;;17.88;5.57;;;;;;;7.99;100.00;100354.63;10414104;28;20021;-75
2024/01/01 13:49:30;;;;;;;15.90;4.85;;;;;;;7.93;100.00;100355.38;10413471;28;20041;-77
2024/01/01 13:54:30;;;;;;;6.97;4.20;;;;;;;7.98;100.00;100354.81;10428110;28;20128;-77
2024/01/01 13:59:30;;;;;;;12.90;3.88;;;;;;;7.84;100.00;100351.97;10413173;28;20128;-75
2024/01/01 14:04:31;;;;;;;12.68;4.22;;;;;;;7.77;100.00;100361.03;10413668;28;20053;-74
2024/01/01 14:09:31;;;;;;;13.15;5.57;;;;;;;7.97;100.00;100363.91;10412928;28;20082;-73
2024/01/01 14:14:32;;;;;;;15.93;4.68;;;;;;;8.35;100.00;100372.53;10412497;28;20438;-76
2024/01/01 14:19:33;;;;;;;15.55;6.55;;;;;;;8.54;100.00;100369.19;10395328;28;20120;-76
2024/01/01 14:24:34;;;;;;;14.57;4.93;;;;;;;8.72;100.00;100375.94;10400351;28;20156;-77
2024/01/01 14:29:35;;;;;;;21.50;4.95;;;;;;;8.42;100.00;100381.53;10441304;28;20033;-77
2024/01/01 14:34:36;;;;;;;9.35;3.88;;;;;;;8.13;100.00;100385.22;10425752;28;20045;-77
2024/01/01 14:39:36;;;;;;;14.52;6.35;;;;;;;8.15;100.00;100386.69;10441945;28;20053;-74
2024/01/01 14:44:37;;;;;;;21.08;5.68;;;;;;;8.26;100.00;100388.03;10440733;28;20022;-72
2024/01/01 14:49:37;;;;;;;20.65;3.95;;;;;;;8.10;100.00;100389.16;10426312;28;20029;-74
2024/01/01 14:54:40;;;;;;;16.27;5.70;;;;;;;8.20;100.00;100404.16;10426620;28;20029;-75
2024/01/01 14:59:41;;;;;;;25.23;4.93;;;;;;;8.16;100.00;100399.16;10440972;28;20040;-74
2024/01/01 15:04:43;;;;;;;10.15;5.03;;;;;;;7.93;100.00;100393.13;10440722;28;20055;-75
2024/01/01 15:09:45;;;;;;;26.77;4.20;;;;;;;7.74;100.00;100409.94;10427335;28;20040;-73
2024/01/01 15:14:45;;;;;;;16.48;5.18;;;;;;;7.61;100.00;100419.53;10428946;28;20033;-73
2024/01/01 15:19:45;;;;;;;24.70;5.18;;;;;;;7.48;100.00;100415.88;10429078;28;20364;-74
2024/01/01 15:24:46;;;;;;;29.00;7.50;;;;;;;7.40;100.00;100425.75;10424769;28;20073;-74
2024/01/01 15:29:47;;;;;;;16.83;5.20;;;;;;;7.39;100.00;100428.59;10425427;28;20426;-74
2024/01/01 15:34:47;;;;;;;30.17;6.55;;;;;;;7.36;100.00;100434.38;10423490;28;20048;-73
2024/01/01 15:39:47;;;;;;;28.70;8.35;;;;;;;7.34;100.00;100437.25;10361433;28;20077;-73
2024/01/01 15:44:48;;;;;;;24.60;7.60;;;;;;;7.39;100.00;100440.22;10416858;28;20037;-73
2024/01/01 15:49:48;;;;;;;22.23;5.97;;;;;;;7.29;100.00;100433.44;10419309;28;20060;-73
2024/01/01 15:54:49;;;;;;;24.60;6.18;;;;;;;7.25;100.00;100432.16;10418383;28;20065;-73
2024/01/01 15:59:49;;;;;;;12.93;5.97;;;;;;;7.13;100.00;100432.63;10418115;28;20372;-73
2024/01/01 16:04:50;;;;;;;12.27;4.65;;;;;;;7.07;100.00;100433.38;10418146;28;20045;-73
2024/01/01 16:09:50;;;;;;;18.98;6.75;;;;;;;6.97;100.00;100430.97;10417912;28;20105;-73
2024/01/01 16:14:54;;;;;;;27.35;7.18;;;;;;;6.95;100.00;100440.22;10416844;28;20037;-73
2024/01/01 16:19:54;;;;;;;11.05;4.90;;;;;;;6.91;100.00;100436.25;10415924;28;20025;-74
2024/01/01 16:24:55;;;;;;;9.07;3.45;;;;;;;6.79;100.00;100433.16;10416696;28;20053;-73
2024/01/01 16:29:55;;;;;;;11.30;4.55;;;;;;;6.80;100.00;100434.03;10415353;28;20029;-73
2024/01/01 16:34:56;;;;;;;28.83;4.97;;;;;;;6.76;100.00;100430.84;10417364;28;20044;-73
2024/01/01 16:39:56;;;;;;;8.90;4.63;;;;;;;6.79;100.00;100426.94;10432059;28;20052;-73
2024/01/01 16:44:57;;;;;;;14.65;4.93;;;;;;;6.82;100.00;100438.19;10414031;28;20034;-74
2024/01/01 16:49:59;;;;;;;18.67;6.22;;;;;;;6.76;100.00;100449.69;10414494;28;20039;-73
2024/01/01 16:55:03;;;;;;;15.07;6.32;;;;;;;6.68;100.00;100444.41;10430424;28;20021;-73
2024/01/01 17:00:05;;;;;;;25.02;5.97;;;;;;;6.60;100.00;100439.06;10415882;28;20511;-74
2024/01/01 17:05:06;;;;;;;9.43;4.53;;;;;;;6.52;100.00;100448.91;10415158;28;20060;-73
2024/01/01 17:10:06;;;;;;;18.80;6.35;;;;;;;6.41;100.00;100443.13;10416147;28;20151;-73
2024/01/01 17:15:07;;;;;;;25.38;7.05;;;;;;;6.36;100.00;100435.59;10413513;28;20029;-73
2024/01/01 17:20:10;;;;;;;24.95;7.32;;;;;;;6.33;100.00;100441.34;10415375;28;20032;-73
2024/01/01 17:25:11;;;;;;;19.52;5.32;;;;;;;6.26;100.00;100443.94;10415389;28;20168;-73
2024/01/01 17:30:15;;;;;;;27.52;6.15;;;;;;;6.19;100.00;100442.97;10415869;28;20091;-73
2024/01/01 17:35:18;;;;;;;16.02;6.13;;;;;;;6.13;100.00;100456.31;10417344;28;20029;-73
2024/01/01 17:40:19;;;;;;;11.43;5.53;;;;;;;6.11;100.00;100451.09;10415803;28;20146;-73
2024/01/01 17:45:19;;;;;;;10.98;5.32;;;;;;;6.07;100.00;100446.28;10413039;28;20033;-73
2024/01/01 17:50:20;;;;;;;21.67;6.88;;;;;;;6.22;100.00;100449.81;10414692;28;20531;-73
2024/01/01 17:55:21;;;;;;;13.40;5.63;;;;;;;6.31;100.00;100445.22;10418300;28;20037;-74
2024/01/01 18:00:21;;;;;;;36.13;9.82;;;;;;;6.27;100.00;100442.91;10414185;28;20030;-73
2024/01/01 18:05:22;;;;;;;32.50;6.18;;;;;;;6.33;100.00;100433.28;10412879;28;20449;-73
2024/01/01 18:10:22;;;;;;;23.90;7.53;;;;;;;6.41;100.00;100429.66;10414276;28;20033;-73
2024/01/01 18:15:22;;;;;;;16.55;6.20;;;;;;;6.44;100.00;100432.00;10412628;28;20369;-73
2024/01/01 18:20:23;;;;;;;11.10;5.28;;;;;;;6.45;100.00;100436.38;10414089;28;20126;-73
2024/01/01 18:25:23;;;;;;;21.95;6.03;;;;;;;6.55;100.00;100431.56;10413823;28;20436;-73
2024/01/01 18:30:25;;;;;;;18.23;7.18;;;;;;;6.60;100.00;100423.75;10413750;28;20437;-73
2024/01/01 18:35:25;;;;;;;16.30;5.05;;;;;;;6.60;100.00;100423.75;10412575;28;20505;-73
2024/01/01 18:40:25;;;;;;;5.80;2.92;;;;;;;6.66;100.00;100420.34;10413271;28;20183;-73
2024/01/01 18:45:26;;;;;;;24.55;4.38;;;;;;;6.73;100.00;100415.94;10412260;28;20061;-74
2024/01/01 18:50:26;;;;;;;9.95;4.03;;;;;;;6.75;100.00;100408.47;10413030;28;20076;-73
2024/01/01 18:55:27;;;;;;;18.65;2.65;;;;;;;6.77;100.00;100399.41;10413895;28;20033;-73
2024/01/01 19:00:27;;;;;;;6.00;3.22;;;;;;;6.81;100.00;100406.09;10411098;28;20103;-73
2024/01/01 19:05:28;;;;;;;5.43;3.10;;;;;;;6.99;100.00;100385.03;10412020;28;20022;-73
2024/01/01 19:10:28;;;;;;;5.65;3.55;;;;;;;7.04;100.00;100387.97;10412922;28;20083;-73
2024/01/01 19:15:28;;;;;;;7.95;2.78;;;;;;;7.10;100.00;100389.91;10418749;28;20068;-73
2024/01/01 19:20:29;;;;;;;7.85;2.17;;;;;;;7.13;100.00;100383.31;10420589;28;20025;-73
2024/01/01 19:25:29;;;;;;;9.88;2.13;;;;;;;7.15;100.00;100378.59;10434783;28;20095;-73
2024/01/01 19:30:30;;;;;;;2.25;2.05;;;;;;;7.21;100.00;100377.81;10419316;28;20536;-73
2024/01/01 19:35:30;;;;;;;10.10;3.28;;;;;;;7.15;100.00;100357.88;10419964;28;20029;-73
2024/01/01 19:40:31;;;;;;;1.83;1.73;;;;;;;6.89;100.00;100347.63;10419328;28;20060;-73
2024/01/01 19:45:31;;;;;;;3.28;1.88;;;;;;;6.92;100.00;100344.56;10418702;28;20142;-74
2024/01/01 19:50:32;;;;;;;4.03;2.47;;;;;;;6.96;100.00;100345.00;10419038;28;20449;-73
2024/01/01 19:55:32;;;;;;;10.15;3.17;;;;;;;7.13;100.00;100324.91;10434163;28;20120;-74
2024/01/01 20:00:33;;;;;;;2.30;2.20;;;;;;;7.13;100.00;100318.72;10417079;28;20037;-73
2024/01/01 20:05:33;;;;;;;9.23;2.85;;;;;;;7.02;100.00;100308.41;10417111;28;20076;-73
2024/01/01 20:10:33;;;;;;;9.68;4.65;;;;;;;7.03;100.00;100302.84;10401234;28;20029;-73
2024/01/01 20:15:35;;;;;;;2.47;2.28;;;;;;;6.95;100.00;100308.34;10416286;28;20083;-74
2024/01/01 20:20:36;;;;;;;2.08;1.98;;;;;;;6.95;100.00;100293.00;10436930;28;20087;-73
2024/01/01 20:25:36;;;;;;;4.50;2.45;;;;;;;6.95;100.00;100298.41;10420237;28;20394;-73
2024/01/01 20:30:38;;;;;;;5.88;2.30;;;;;;;7.08;100.00;100292.34;10419094;28;20069;-74
2024/01/01 20:35:39;;;;;;;6.65;2.75;;;;;;;6.97;100.00;100285.59;10432647;28;20468;-73
2024/01/01 20:40:39;;;;;;;1.95;1.85;;;;;;;6.97;100.00;100274.00;10398810;28;20030;-73
2024/01/01 20:45:40;;;;;;;5.35;3.28;;;;;;;6.95;100.00;100265.25;10399300;28;20068;-73
2024/01/01 20:50:40;;;;;;;11.75;3.58;;;;;;;6.87;100.00;100243.88;10415986;28;20040;-73
2024/01/01 20:55:41;;;;;;;14.85;2.65;;;;;;;6.90;100.00;100235.41;10416227;28;20033;-73
2024/01/01 21:00:41;;;;;;;8.85;3.05;;;;;;;6.90;100.00;100236.25;10431763;28;20369;-73
2024/01/01 21:05:42;;;;;;;8.27;3.00;;;;;;;6.81;100.00;100223.91;10432514;28;20060;-73
2024/01/01 21:10:42;;;;;;;10.02;2.78;;;;;;;6.77;100.00;100219.94;10416048;28;20068;-73
2024/01/01 21:15:43;;;;;;;6.40;2.20;;;;;;;6.80;100.00;100224.94;10430786;28;20041;-74
2024/01/01 21:20:44;;;;;;;14.52;4.18;;;;;;;6.79;100.00;100208.97;10415626;28;20487;-74
2024/01/01 21:25:45;;;;;;;15.15;4.13;;;;;;;6.80;100.00;100197.22;10416528;28;20045;-73
2024/01/01 21:30:45;;;;;;;10.57;4.78;;;;;;;6.71;100.00;100181.16;10415393;28;20120;-73
2024/01/01 21:35:46;;;;;;;4.05;2.67;;;;;;;6.70;100.00;100163.38;10413192;28;20045;-73
2024/01/01 21:40:48;;;;;;;0.40;0.40;;;;;;;6.71;100.00;100154.25;10413606;28;20033;-73
2024/01/01 21:45:48;;;;;;;2.30;2.20;;;;;;;6.71;100.00;100132.75;10430036;28;20036;-73
2024/01/01 21:50:49;;;;;;;0.57;0.57;;;;;;;6.75;100.00;100120.56;10414840;28;20091;-73
2024/01/01 21:55:49;;;;;;;0.68;0.68;;;;;;;6.68;100.00;100113.47;10414622;28;20048;-72
2024/01/01 22:00:50;;;;;;;0.52;0.52;;;;;;;6.60;100.00;100095.56;10414486;28;20064;-73
2024/01/01 22:05:51;;;;;;;0.55;0.55;;;;;;;6.66;100.00;100083.22;10414153;28;20036;-73
2024/01/01 22:10:51;;;;;;;0.55;0.55;;;;;;;6.53;100.00;100057.84;10414235;28;20040;-72
2024/01/01 22:15:52;;;;;;;0.40;0.40;;;;;;;6.48;100.00;100062.16;10412785;28;20029;-72
2024/01/01 22:20:52;;;;;;;0.70;0.70;;;;;;;6.40;100.00;100035.38;10413657;28;20480;-73
2024/01/01 22:25:53;;;;;;;0.60;0.60;;;;;;;6.39;100.00;100020.28;10413479;28;20045;-73
2024/01/01 22:30:53;;;;;;;0.43;0.43;;;;;;;6.41;100.00;100012.81;10413277;28;20040;-73
2024/01/01 22:35:53;;;;;;;5.25;4.80;;;;;;;6.44;100.00;100005.19;10411599;28;20057;-74
2024/01/01 22:40:54;;;;;;;0.70;0.70;;;;;;;6.43;100.00;99991.97;10413879;28;20038;-74
2024/01/01 22:45:54;;;;;;;1.38;1.38;;;;;;;6.39;100.00;99972.69;10414996;28;20029;-74
2024/01/01 22:50:55;;;;;;;0.50;0.50;;;;;;;6.37;100.00;99939.78;10437467;28;20041;-72
2024/01/01 22:55:55;;;;;;;0.40;0.40;;;;;;;6.38;100.00;99911.03;10421762;28;20399;-73